sensor_id;sensor_type;location;lat;lon;timestamp;pressure;altitude;pressure_sealevel;temperature;humidity
7333;BME280;3707;43.618;25.342;2024-02-23T00:01:43;99846.72;;;10.57;85.34
7333;BME280;3707;43.618;25.342;2024-02-23T00:04:10;99852.84;;;10.64;85.11
7333;BME280;3707;43.618;25.342;2024-02-23T00:06:38;99851.22;;;10.72;84.66
7333;BME280;3707;43.618;25.342;2024-02-23T00:09:05;99844.25;;;10.68;84.75
7333;BME280;3707;43.618;25.342;2024-02-23T00:11:32;99849.41;;;10.65;84.89
7333;BME280;3707;43.618;25.342;2024-02-23T00:13:59;99838.00;;;10.51;85.18
7333;BME280;3707;43.618;25.342;2024-02-23T00:16:26;99802.44;;;10.39;84.61
7333;BME280;3707;43.618;25.342;2024-02-23T00:18:54;99832.00;;;10.55;83.81
7333;BME280;3707;43.618;25.342;2024-02-23T00:21:21;99850.28;;;10.65;83.88
7333;BME280;3707;43.618;25.342;2024-02-23T00:23:49;99852.88;;;10.67;83.39
7333;BME280;3707;43.618;25.342;2024-02-23T00:26:16;99845.97;;;10.66;82.94
7333;BME280;3707;43.618;25.342;2024-02-23T00:28:43;99851.16;;;10.66;83.00
7333;BME280;3707;43.618;25.342;2024-02-23T00:31:10;99826.75;;;10.47;83.34
7333;BME280;3707;43.618;25.342;2024-02-23T00:33:36;99844.16;;;10.60;83.06
7333;BME280;3707;43.618;25.342;2024-02-23T00:36:07;99834.63;;;10.58;82.84
7333;BME280;3707;43.618;25.342;2024-02-23T00:38:34;99828.59;;;10.56;82.95
7333;BME280;3707;43.618;25.342;2024-02-23T00:41:03;99838.94;;;10.56;83.39
7333;BME280;3707;43.618;25.342;2024-02-23T00:43:30;99837.13;;;10.49;83.73
7333;BME280;3707;43.618;25.342;2024-02-23T00:46:03;99843.94;;;10.42;84.21
7333;BME280;3707;43.618;25.342;2024-02-23T00:48:30;99833.59;;;10.40;84.26
7333;BME280;3707;43.618;25.342;2024-02-23T00:50:57;99835.28;;;10.38;84.07
7333;BME280;3707;43.618;25.342;2024-02-23T00:53:24;99840.41;;;10.35;83.70
7333;BME280;3707;43.618;25.342;2024-02-23T00:55:51;99804.78;;;10.16;83.68
7333;BME280;3707;43.618;25.342;2024-02-23T00:58:19;99828.38;;;10.37;83.33
7333;BME280;3707;43.618;25.342;2024-02-23T01:00:46;99824.06;;;10.38;82.75
7333;BME280;3707;43.618;25.342;2024-02-23T01:03:12;99826.59;;;10.33;83.01
7333;BME280;3707;43.618;25.342;2024-02-23T01:05:39;99832.63;;;10.32;82.43
7333;BME280;3707;43.618;25.342;2024-02-23T01:08:08;99810.03;;;10.22;82.84
7333;BME280;3707;43.618;25.342;2024-02-23T01:10:35;99810.91;;;10.24;83.30
7333;BME280;3707;43.618;25.342;2024-02-23T01:13:01;99823.06;;;10.27;82.88
7333;BME280;3707;43.618;25.342;2024-02-23T01:15:29;99816.06;;;10.21;83.32
7333;BME280;3707;43.618;25.342;2024-02-23T01:17:56;99796.88;;;10.07;83.25
7333;BME280;3707;43.618;25.342;2024-02-23T01:20:23;99814.31;;;10.19;82.62
7333;BME280;3707;43.618;25.342;2024-02-23T01:22:50;99808.31;;;10.24;81.65
7333;BME280;3707;43.618;25.342;2024-02-23T01:25:16;99804.03;;;10.28;81.29
7333;BME280;3707;43.618;25.342;2024-02-23T01:27:43;99800.66;;;10.30;81.02
7333;BME280;3707;43.618;25.342;2024-02-23T01:30:11;99806.66;;;10.31;80.85
7333;BME280;3707;43.618;25.342;2024-02-23T01:32:39;99804.97;;;10.30;81.14
7333;BME280;3707;43.618;25.342;2024-02-23T01:35:07;99798.91;;;10.29;80.98
7333;BME280;3707;43.618;25.342;2024-02-23T01:37:34;99799.81;;;10.33;80.78
7333;BME280;3707;43.618;25.342;2024-02-23T01:40:01;99803.25;;;10.30;80.63
7333;BME280;3707;43.618;25.342;2024-02-23T01:42:28;99790.16;;;10.21;80.80
7333;BME280;3707;43.618;25.342;2024-02-23T01:44:55;99798.88;;;10.26;80.96
7333;BME280;3707;43.618;25.342;2024-02-23T01:47:22;99807.53;;;10.31;79.96
7333;BME280;3707;43.618;25.342;2024-02-23T01:49:51;99801.59;;;10.40;79.40
7333;BME280;3707;43.618;25.342;2024-02-23T01:52:18;99795.56;;;10.39;79.25
7333;BME280;3707;43.618;25.342;2024-02-23T01:54:46;99778.16;;;10.29;79.96
7333;BME280;3707;43.618;25.342;2024-02-23T01:57:13;99792.91;;;10.33;79.88
7333;BME280;3707;43.618;25.342;2024-02-23T01:59:40;99774.66;;;10.27;78.82
7333;BME280;3707;43.618;25.342;2024-02-23T02:02:08;99801.63;;;10.41;78.93
7333;BME280;3707;43.618;25.342;2024-02-23T02:04:35;99793.00;;;10.45;79.16
7333;BME280;3707;43.618;25.342;2024-02-23T02:07:03;99785.28;;;10.47;78.95
7333;BME280;3707;43.618;25.342;2024-02-23T02:09:30;99797.34;;;10.47;78.58
7333;BME280;3707;43.618;25.342;2024-02-23T02:11:57;99795.66;;;10.49;77.97
7333;BME280;3707;43.618;25.342;2024-02-23T02:14:24;99791.34;;;10.51;77.49
7333;BME280;3707;43.618;25.342;2024-02-23T02:16:51;99794.78;;;10.45;78.13
7333;BME280;3707;43.618;25.342;2024-02-23T02:19:18;99797.34;;;10.47;77.84
7333;BME280;3707;43.618;25.342;2024-02-23T02:21:44;99764.41;;;10.33;77.51
7333;BME280;3707;43.618;25.342;2024-02-23T02:24:12;99793.97;;;10.54;76.66
7333;BME280;3707;43.618;25.342;2024-02-23T02:26:39;99794.88;;;10.57;76.55
7333;BME280;3707;43.618;25.342;2024-02-23T02:29:08;99796.59;;;10.57;75.98
7333;BME280;3707;43.618;25.342;2024-02-23T02:31:34;99800.09;;;10.60;75.70
7333;BME280;3707;43.618;25.342;2024-02-23T02:34:03;99790.63;;;10.64;74.89
7333;BME280;3707;43.618;25.342;2024-02-23T02:36:30;99794.09;;;10.67;74.52
7333;BME280;3707;43.618;25.342;2024-02-23T02:38:56;99793.25;;;10.68;73.69
7333;BME280;3707;43.618;25.342;2024-02-23T02:41:26;99790.69;;;10.70;73.85
7333;BME280;3707;43.618;25.342;2024-02-23T02:43:55;99798.50;;;10.73;73.21
7333;BME280;3707;43.618;25.342;2024-02-23T02:46:21;99800.16;;;10.68;74.47
7333;BME280;3707;43.618;25.342;2024-02-23T02:48:48;99799.25;;;10.61;75.36
7333;BME280;3707;43.618;25.342;2024-02-23T02:51:15;99776.53;;;10.37;76.69
7333;BME280;3707;43.618;25.342;2024-02-23T02:53:41;99797.44;;;10.54;76.75
7333;BME280;3707;43.618;25.342;2024-02-23T02:56:08;99804.34;;;10.52;76.13
7333;BME280;3707;43.618;25.342;2024-02-23T02:58:36;99806.09;;;10.55;75.62
7333;BME280;3707;43.618;25.342;2024-02-23T03:01:03;99806.06;;;10.52;75.97
7333;BME280;3707;43.618;25.342;2024-02-23T03:03:30;99781.75;;;10.40;75.87
7333;BME280;3707;43.618;25.342;2024-02-23T03:05:57;99780.75;;;10.31;77.29
7333;BME280;3707;43.618;25.342;2024-02-23T03:08:23;99786.81;;;10.31;76.67
7333;BME280;3707;43.618;25.342;2024-02-23T03:10:51;99783.38;;;10.32;76.36
7333;BME280;3707;43.618;25.342;2024-02-23T03:13:18;99805.03;;;10.39;76.87
7333;BME280;3707;43.618;25.342;2024-02-23T03:15:46;99799.84;;;10.34;76.73
7333;BME280;3707;43.618;25.342;2024-02-23T03:18:13;99804.09;;;10.29;77.08
7333;BME280;3707;43.618;25.342;2024-02-23T03:20:40;99815.31;;;10.30;77.20
7333;BME280;3707;43.618;25.342;2024-02-23T03:23:07;99811.81;;;10.28;76.86
7333;BME280;3707;43.618;25.342;2024-02-23T03:25:34;99814.44;;;10.29;76.78
7333;BME280;3707;43.618;25.342;2024-02-23T03:28:00;99791.75;;;10.13;76.95
7333;BME280;3707;43.618;25.342;2024-02-23T03:30:27;99803.13;;;10.20;76.25
7333;BME280;3707;43.618;25.342;2024-02-23T03:32:55;99788.38;;;10.17;76.70
7333;BME280;3707;43.618;25.342;2024-02-23T03:35:22;99803.09;;;10.18;77.41
7333;BME280;3707;43.618;25.342;2024-02-23T03:37:49;99794.28;;;10.06;77.78
7333;BME280;3707;43.618;25.342;2024-02-23T03:40:16;99802.03;;;10.07;78.94
7333;BME280;3707;43.618;25.342;2024-02-23T03:42:44;99805.44;;;10.02;79.10
7333;BME280;3707;43.618;25.342;2024-02-23T03:45:11;99797.66;;;10.03;78.13
7333;BME280;3707;43.618;25.342;2024-02-23T03:47:38;99806.31;;;10.04;78.19
7333;BME280;3707;43.618;25.342;2024-02-23T03:50:08;99800.25;;;10.03;77.81
7333;BME280;3707;43.618;25.342;2024-02-23T03:52:35;99782.91;;;9.96;77.27
7333;BME280;3707;43.618;25.342;2024-02-23T03:55:02;99789.84;;;9.97;77.00
7333;BME280;3707;43.618;25.342;2024-02-23T03:57:29;99801.22;;;10.11;76.45
7333;BME280;3707;43.618;25.342;2024-02-23T03:59:57;99812.53;;;10.15;76.14
7333;BME280;3707;43.618;25.342;2024-02-23T04:02:24;99808.22;;;10.17;76.19
7333;BME280;3707;43.618;25.342;2024-02-23T04:04:50;99813.41;;;10.17;76.48
7333;BME280;3707;43.618;25.342;2024-02-23T04:07:19;99814.31;;;10.20;75.18
7333;BME280;3707;43.618;25.342;2024-02-23T04:09:46;99782.16;;;10.05;73.67
7333;BME280;3707;43.618;25.342;2024-02-23T04:12:17;99808.38;;;10.29;72.29
7333;BME280;3707;43.618;25.342;2024-02-23T04:14:44;99821.47;;;10.38;72.74
7333;BME280;3707;43.618;25.342;2024-02-23T04:17:11;99810.88;;;10.20;78.71
7333;BME280;3707;43.618;25.342;2024-02-23T04:19:38;99815.72;;;9.97;80.57
7333;BME280;3707;43.618;25.342;2024-02-23T04:22:06;99814.78;;;9.90;81.64
7333;BME280;3707;43.618;25.342;2024-02-23T04:24:35;99815.56;;;9.85;82.91
7333;BME280;3707;43.618;25.342;2024-02-23T04:27:03;99811.09;;;9.75;83.82
7333;BME280;3707;43.618;25.342;2024-02-23T04:29:30;99820.41;;;9.61;86.97
7333;BME280;3707;43.618;25.342;2024-02-23T04:31:57;99811.41;;;9.34;90.25
7333;BME280;3707;43.618;25.342;2024-02-23T04:34:24;99805.00;;;9.13;91.68
7333;BME280;3707;43.618;25.342;2024-02-23T04:36:51;99828.25;;;9.11;93.09
7333;BME280;3707;43.618;25.342;2024-02-23T04:39:17;99820.44;;;9.10;94.15
7333;BME280;3707;43.618;25.342;2024-02-23T04:41:45;99805.63;;;8.98;94.31
7333;BME280;3707;43.618;25.342;2024-02-23T04:44:12;99822.06;;;9.02;95.05
7333;BME280;3707;43.618;25.342;2024-02-23T04:46:39;99826.31;;;8.98;95.37
7333;BME280;3707;43.618;25.342;2024-02-23T04:49:06;99822.94;;;9.02;94.96
7333;BME280;3707;43.618;25.342;2024-02-23T04:51:33;99828.09;;;9.02;95.00
7333;BME280;3707;43.618;25.342;2024-02-23T04:53:59;99829.81;;;9.03;94.29
7333;BME280;3707;43.618;25.342;2024-02-23T04:56:26;99831.56;;;9.04;95.02
7333;BME280;3707;43.618;25.342;2024-02-23T04:58:54;99811.53;;;8.92;95.23
7333;BME280;3707;43.618;25.342;2024-02-23T05:01:21;99831.47;;;8.98;95.32
7333;BME280;3707;43.618;25.342;2024-02-23T05:03:48;99828.84;;;8.95;94.69
7333;BME280;3707;43.618;25.342;2024-02-23T05:06:14;99826.22;;;8.93;93.70
7333;BME280;3707;43.618;25.342;2024-02-23T05:08:41;99822.81;;;8.94;94.02
7333;BME280;3707;43.618;25.342;2024-02-23T05:11:08;99836.75;;;9.04;92.46
7333;BME280;3707;43.618;25.342;2024-02-23T05:13:35;99828.41;;;9.20;88.68
7333;BME280;3707;43.618;25.342;2024-02-23T05:16:05;99823.38;;;9.29;87.56
7333;BME280;3707;43.618;25.342;2024-02-23T05:18:32;99828.50;;;9.26;87.96
7333;BME280;3707;43.618;25.342;2024-02-23T05:21:00;99836.53;;;9.41;86.55
7333;BME280;3707;43.618;25.342;2024-02-23T05:23:27;99840.94;;;9.49;86.03
7333;BME280;3707;43.618;25.342;2024-02-23T05:25:53;99709.59;;;8.75;85.56
7333;BME280;3707;43.618;25.342;2024-02-23T05:28:20;99835.81;;;9.52;84.65
7333;BME280;3707;43.618;25.342;2024-02-23T05:30:47;99860.22;;;9.69;83.53
7333;BME280;3707;43.618;25.342;2024-02-23T05:33:15;99866.84;;;10.09;100.00
7333;BME280;3707;43.618;25.342;2024-02-23T05:35:42;99871.06;;;10.02;89.57
7333;BME280;3707;43.618;25.342;2024-02-23T05:38:09;99871.97;;;10.06;85.56
7333;BME280;3707;43.618;25.342;2024-02-23T05:40:36;99877.31;;;10.15;84.12
7333;BME280;3707;43.618;25.342;2024-02-23T05:43:03;99853.03;;;10.11;82.90
7333;BME280;3707;43.618;25.342;2024-02-23T05:45:29;99880.09;;;10.31;82.36
7333;BME280;3707;43.618;25.342;2024-02-23T05:47:56;99886.22;;;10.36;82.15
7333;BME280;3707;43.618;25.342;2024-02-23T05:50:24;99881.88;;;10.35;82.16
7333;BME280;3707;43.618;25.342;2024-02-23T05:52:51;99875.00;;;10.37;82.53
7333;BME280;3707;43.618;25.342;2024-02-23T05:55:18;99886.41;;;10.52;81.28
7333;BME280;3707;43.618;25.342;2024-02-23T05:57:45;99890.69;;;10.50;80.56
7333;BME280;3707;43.618;25.342;2024-02-23T06:00:13;99892.44;;;10.51;81.40
7333;BME280;3707;43.618;25.342;2024-02-23T06:02:40;99901.06;;;10.50;81.77
7333;BME280;3707;43.618;25.342;2024-02-23T06:05:07;99894.03;;;10.39;82.22
7333;BME280;3707;43.618;25.342;2024-02-23T06:07:35;99897.59;;;10.48;82.33
7333;BME280;3707;43.618;25.342;2024-02-23T06:10:03;99907.13;;;10.49;82.23
7333;BME280;3707;43.618;25.342;2024-02-23T06:12:30;99908.09;;;10.58;92.18
7333;BME280;3707;43.618;25.342;2024-02-23T06:14:57;99908.97;;;10.59;84.03
7333;BME280;3707;43.618;25.342;2024-02-23T06:17:24;99905.44;;;10.52;81.87
7333;BME280;3707;43.618;25.342;2024-02-23T06:19:51;99903.63;;;10.45;81.61
7333;BME280;3707;43.618;25.342;2024-02-23T06:22:18;99902.66;;;10.38;80.73
7333;BME280;3707;43.618;25.342;2024-02-23T06:24:48;99909.78;;;10.55;81.51
7333;BME280;3707;43.618;25.342;2024-02-23T06:27:14;99912.50;;;10.65;89.94
7333;BME280;3707;43.618;25.342;2024-02-23T06:29:41;99924.75;;;10.77;81.68
7333;BME280;3707;43.618;25.342;2024-02-23T06:32:08;99893.50;;;10.68;80.93
7333;BME280;3707;43.618;25.342;2024-02-23T06:34:35;99907.38;;;10.70;79.59
7333;BME280;3707;43.618;25.342;2024-02-23T06:37:02;99874.44;;;10.61;89.58
7333;BME280;3707;43.618;25.342;2024-02-23T06:39:29;99921.41;;;10.87;81.31
7333;BME280;3707;43.618;25.342;2024-02-23T06:41:57;99923.13;;;10.86;79.94
7333;BME280;3707;43.618;25.342;2024-02-23T06:44:26;99926.56;;;10.84;79.05
7333;BME280;3707;43.618;25.342;2024-02-23T06:46:52;99849.13;;;10.40;78.21
7333;BME280;3707;43.618;25.342;2024-02-23T06:49:19;99911.84;;;10.83;77.34
7333;BME280;3707;43.618;25.342;2024-02-23T06:51:46;99933.75;;;11.09;75.57
7333;BME280;3707;43.618;25.342;2024-02-23T06:54:13;99921.72;;;11.20;75.47
7333;BME280;3707;43.618;25.342;2024-02-23T06:56:40;99714.88;;;10.09;73.03
7333;BME280;3707;43.618;25.342;2024-02-23T06:59:08;99918.53;;;11.49;84.59
7333;BME280;3707;43.618;25.342;2024-02-23T07:01:34;99793.50;;;10.91;78.95
7333;BME280;3707;43.618;25.342;2024-02-23T07:04:02;99912.75;;;11.77;73.75
7333;BME280;3707;43.618;25.342;2024-02-23T07:06:29;99887.53;;;11.68;71.78
7333;BME280;3707;43.618;25.342;2024-02-23T07:08:57;99916.34;;;11.97;70.15
7333;BME280;3707;43.618;25.342;2024-02-23T07:11:24;99905.97;;;11.97;70.73
7333;BME280;3707;43.618;25.342;2024-02-23T07:13:50;99891.22;;;11.96;69.82
7333;BME280;3707;43.618;25.342;2024-02-23T07:16:19;99924.34;;;12.26;68.20
7333;BME280;3707;43.618;25.342;2024-02-23T07:18:45;99916.56;;;12.32;67.68
7333;BME280;3707;43.618;25.342;2024-02-23T07:21:12;99912.25;;;12.38;68.39
7333;BME280;3707;43.618;25.342;2024-02-23T07:23:39;99896.66;;;12.41;68.44
7333;BME280;3707;43.618;25.342;2024-02-23T07:26:06;99908.00;;;12.56;69.22
7333;BME280;3707;43.618;25.342;2024-02-23T07:28:33;99908.94;;;12.71;83.25
7333;BME280;3707;43.618;25.342;2024-02-23T07:31:00;99908.06;;;12.71;77.84
7333;BME280;3707;43.618;25.342;2024-02-23T07:33:28;99906.38;;;12.82;73.65
7333;BME280;3707;43.618;25.342;2024-02-23T07:35:55;99907.25;;;12.82;68.81
7333;BME280;3707;43.618;25.342;2024-02-23T07:38:21;99895.09;;;12.84;67.57
7333;BME280;3707;43.618;25.342;2024-02-23T07:40:48;99903.81;;;12.97;67.15
7333;BME280;3707;43.618;25.342;2024-02-23T07:43:15;99906.41;;;13.00;66.76
7333;BME280;3707;43.618;25.342;2024-02-23T07:45:42;99914.31;;;13.18;66.69
7333;BME280;3707;43.618;25.342;2024-02-23T07:48:09;99892.59;;;13.16;68.66
7333;BME280;3707;43.618;25.342;2024-02-23T07:50:37;99880.47;;;13.23;65.36
7333;BME280;3707;43.618;25.342;2024-02-23T07:53:04;99883.94;;;13.29;67.17
7333;BME280;3707;43.618;25.342;2024-02-23T07:55:30;99895.25;;;13.40;64.59
7333;BME280;3707;43.618;25.342;2024-02-23T07:57:58;99904.78;;;13.60;62.21
7333;BME280;3707;43.618;25.342;2024-02-23T08:00:26;99906.50;;;13.59;62.04
7333;BME280;3707;43.618;25.342;2024-02-23T08:02:53;99887.41;;;13.50;63.16
7333;BME280;3707;43.618;25.342;2024-02-23T08:05:22;99909.13;;;13.62;62.07
7333;BME280;3707;43.618;25.342;2024-02-23T08:07:50;99876.13;;;13.54;62.00
7333;BME280;3707;43.618;25.342;2024-02-23T08:10:17;99854.41;;;13.46;61.71
7333;BME280;3707;43.618;25.342;2024-02-23T08:12:43;99908.25;;;13.75;61.94
7333;BME280;3707;43.618;25.342;2024-02-23T08:15:10;99904.78;;;13.78;61.83
7333;BME280;3707;43.618;25.342;2024-02-23T08:17:37;99896.09;;;13.58;62.05
7333;BME280;3707;43.618;25.342;2024-02-23T08:20:05;99899.56;;;13.60;63.36
7333;BME280;3707;43.618;25.342;2024-02-23T08:22:32;99913.47;;;13.68;61.86
7333;BME280;3707;43.618;25.342;2024-02-23T08:25:00;99917.81;;;13.67;62.51
7333;BME280;3707;43.618;25.342;2024-02-23T08:27:27;99916.94;;;13.82;61.57
7333;BME280;3707;43.618;25.342;2024-02-23T08:29:54;99916.94;;;13.97;60.26
7333;BME280;3707;43.618;25.342;2024-02-23T08:32:20;99903.00;;;13.95;58.39
7333;BME280;3707;43.618;25.342;2024-02-23T08:34:47;99909.97;;;14.08;58.47
7333;BME280;3707;43.618;25.342;2024-02-23T08:37:14;99911.69;;;14.12;58.17
7333;BME280;3707;43.618;25.342;2024-02-23T08:39:41;99894.31;;;14.02;57.42
7333;BME280;3707;43.618;25.342;2024-02-23T08:42:09;99909.91;;;14.17;57.29
7333;BME280;3707;43.618;25.342;2024-02-23T08:44:36;99883.91;;;13.93;56.57
7333;BME280;3707;43.618;25.342;2024-02-23T08:47:04;99916.84;;;14.24;56.36
7333;BME280;3707;43.618;25.342;2024-02-23T08:49:31;99905.56;;;14.25;56.53
7333;BME280;3707;43.618;25.342;2024-02-23T08:51:58;99911.63;;;14.39;56.80
7333;BME280;3707;43.618;25.342;2024-02-23T08:54:25;99921.19;;;14.51;56.63
7333;BME280;3707;43.618;25.342;2024-02-23T08:56:52;99915.06;;;14.58;56.22
7333;BME280;3707;43.618;25.342;2024-02-23T08:59:20;99843.88;;;14.15;56.22
7333;BME280;3707;43.618;25.342;2024-02-23T09:01:46;99903.78;;;14.47;56.23
7333;BME280;3707;43.618;25.342;2024-02-23T09:04:13;99917.66;;;14.66;55.41
7333;BME280;3707;43.618;25.342;2024-02-23T09:06:40;99926.28;;;14.74;55.18
7333;BME280;3707;43.618;25.342;2024-02-23T09:09:07;99927.22;;;14.58;54.10
7333;BME280;3707;43.618;25.342;2024-02-23T09:11:35;99936.75;;;14.71;53.97
7333;BME280;3707;43.618;25.342;2024-02-23T09:14:02;99932.31;;;14.85;53.81
7333;BME280;3707;43.618;25.342;2024-02-23T09:16:30;99938.38;;;14.93;53.80
7333;BME280;3707;43.618;25.342;2024-02-23T09:18:57;99855.84;;;14.68;70.07
7333;BME280;3707;43.618;25.342;2024-02-23T09:21:24;99923.22;;;15.56;72.41
7333;BME280;3707;43.618;25.342;2024-02-23T09:23:51;99918.00;;;15.48;55.37
7333;BME280;3707;43.618;25.342;2024-02-23T09:26:17;99926.69;;;15.58;53.40
7333;BME280;3707;43.618;25.342;2024-02-23T09:28:44;99914.53;;;15.48;51.94
7333;BME280;3707;43.618;25.342;2024-02-23T09:31:11;99922.28;;;15.66;51.85
7333;BME280;3707;43.618;25.342;2024-02-23T09:33:39;99885.84;;;15.43;51.56
7333;BME280;3707;43.618;25.342;2024-02-23T09:36:06;99898.78;;;15.60;50.32
7333;BME280;3707;43.618;25.342;2024-02-23T09:38:35;99919.56;;;15.75;50.07
7333;BME280;3707;43.618;25.342;2024-02-23T09:41:02;99918.59;;;15.85;49.95
7333;BME280;3707;43.618;25.342;2024-02-23T09:43:29;99921.97;;;16.01;50.99
7333;BME280;3707;43.618;25.342;2024-02-23T09:45:57;99919.34;;;15.99;52.39
7333;BME280;3707;43.618;25.342;2024-02-23T09:48:24;99898.47;;;15.95;48.08
7333;BME280;3707;43.618;25.342;2024-02-23T09:50:54;99907.09;;;16.04;48.23
7333;BME280;3707;43.618;25.342;2024-02-23T09:53:22;99900.09;;;16.06;48.02
7333;BME280;3707;43.618;25.342;2024-02-23T09:55:50;99901.72;;;16.19;47.83
7333;BME280;3707;43.618;25.342;2024-02-23T09:58:18;99889.59;;;16.09;47.21
7333;BME280;3707;43.618;25.342;2024-02-23T10:00:45;99906.00;;;16.23;47.11
7333;BME280;3707;43.618;25.342;2024-02-23T10:03:12;99897.53;;;16.02;47.10
7333;BME280;3707;43.618;25.342;2024-02-23T10:05:39;99901.72;;;16.16;46.15
7333;BME280;3707;43.618;25.342;2024-02-23T10:08:08;99900.66;;;16.34;45.87
7333;BME280;3707;43.618;25.342;2024-02-23T10:10:35;99814.06;;;15.82;46.97
7333;BME280;3707;43.618;25.342;2024-02-23T10:13:02;99897.81;;;16.54;46.47
7333;BME280;3707;43.618;25.342;2024-02-23T10:15:30;99893.31;;;16.69;44.87
7333;BME280;3707;43.618;25.342;2024-02-23T10:17:57;99881.66;;;16.92;43.95
7333;BME280;3707;43.618;25.342;2024-02-23T10:20:24;99864.19;;;16.92;45.04
7333;BME280;3707;43.618;25.342;2024-02-23T10:22:51;99886.97;;;16.84;45.20
7333;BME280;3707;43.618;25.342;2024-02-23T10:25:21;99856.56;;;16.75;44.60
7333;BME280;3707;43.618;25.342;2024-02-23T10:27:47;99877.38;;;16.86;45.45
7333;BME280;3707;43.618;25.342;2024-02-23T10:30:14;99890.47;;;16.86;44.91
7333;BME280;3707;43.618;25.342;2024-02-23T10:32:42;99873.88;;;16.87;44.63
7333;BME280;3707;43.618;25.342;2024-02-23T10:35:11;99857.59;;;16.64;45.16
7333;BME280;3707;43.618;25.342;2024-02-23T10:37:42;99853.84;;;16.81;44.94
7333;BME280;3707;43.618;25.342;2024-02-23T10:40:11;99856.41;;;16.86;43.15
7333;BME280;3707;43.618;25.342;2024-02-23T10:42:40;99861.25;;;17.15;43.19
7333;BME280;3707;43.618;25.342;2024-02-23T10:45:10;99853.16;;;17.28;40.46
7333;BME280;3707;43.618;25.342;2024-02-23T10:47:37;99844.38;;;17.31;40.25
7333;BME280;3707;43.618;25.342;2024-02-23T10:50:05;99859.75;;;17.52;40.20
7333;BME280;3707;43.618;25.342;2024-02-23T10:52:33;99840.50;;;17.55;39.92
7333;BME280;3707;43.618;25.342;2024-02-23T10:55:01;99860.34;;;17.71;39.32
7333;BME280;3707;43.618;25.342;2024-02-23T10:57:30;99858.41;;;17.80;39.18
7333;BME280;3707;43.618;25.342;2024-02-23T10:59:59;99850.41;;;17.88;39.10
7333;BME280;3707;43.618;25.342;2024-02-23T11:02:28;99852.88;;;17.97;38.50
7333;BME280;3707;43.618;25.342;2024-02-23T11:04:58;99827.78;;;17.82;39.33
7333;BME280;3707;43.618;25.342;2024-02-23T11:07:25;99845.09;;;17.93;38.95
7333;BME280;3707;43.618;25.342;2024-02-23T11:09:53;99836.63;;;17.77;38.58
7333;BME280;3707;43.618;25.342;2024-02-23T11:12:24;99834.59;;;17.93;40.34
7333;BME280;3707;43.618;25.342;2024-02-23T11:14:51;99814.59;;;17.87;38.03
7333;BME280;3707;43.618;25.342;2024-02-23T11:17:26;99812.88;;;17.86;38.03
7333;BME280;3707;43.618;25.342;2024-02-23T11:19:54;99811.72;;;17.99;38.61
7333;BME280;3707;43.618;25.342;2024-02-23T11:22:25;99824.84;;;17.99;38.68
7333;BME280;3707;43.618;25.342;2024-02-23T11:24:53;99748.66;;;17.59;38.64
7333;BME280;3707;43.618;25.342;2024-02-23T11:27:20;99800.34;;;17.99;38.55
7333;BME280;3707;43.618;25.342;2024-02-23T11:29:47;99819.47;;;18.05;38.42
7333;BME280;3707;43.618;25.342;2024-02-23T11:32:14;99823.81;;;18.06;38.42
7333;BME280;3707;43.618;25.342;2024-02-23T11:34:54;99818.44;;;18.12;38.27
7333;BME280;3707;43.618;25.342;2024-02-23T11:37:21;99811.22;;;18.25;38.04
7333;BME280;3707;43.618;25.342;2024-02-23T11:39:48;99812.66;;;18.40;38.10
7333;BME280;3707;43.618;25.342;2024-02-23T11:42:18;99809.16;;;18.41;38.64
7333;BME280;3707;43.618;25.342;2024-02-23T11:44:45;99810.91;;;18.40;38.70
7333;BME280;3707;43.618;25.342;2024-02-23T11:47:11;99813.78;;;18.28;39.20
7333;BME280;3707;43.618;25.342;2024-02-23T11:49:40;99807.13;;;18.12;39.31
7333;BME280;3707;43.618;25.342;2024-02-23T11:52:09;99791.25;;;18.16;39.55
7333;BME280;3707;43.618;25.342;2024-02-23T11:54:37;99813.09;;;18.18;39.31
7333;BME280;3707;43.618;25.342;2024-02-23T11:57:04;99782.56;;;18.14;39.08
7333;BME280;3707;43.618;25.342;2024-02-23T11:59:32;99803.94;;;18.38;39.42
7333;BME280;3707;43.618;25.342;2024-02-23T13:02:48;99756.06;;;19.03;36.41
7333;BME280;3707;43.618;25.342;2024-02-23T13:05:15;99749.25;;;18.95;36.74
7333;BME280;3707;43.618;25.342;2024-02-23T13:07:42;99756.34;;;18.91;36.97
7333;BME280;3707;43.618;25.342;2024-02-23T13:10:09;99736.78;;;18.69;37.32
7333;BME280;3707;43.618;25.342;2024-02-23T13:12:36;99744.91;;;18.57;37.89
7333;BME280;3707;43.618;25.342;2024-02-23T13:15:03;99689.88;;;18.12;38.21
7333;BME280;3707;43.618;25.342;2024-02-23T13:17:30;99737.31;;;18.43;38.74
7333;BME280;3707;43.618;25.342;2024-02-23T13:19:58;99717.53;;;18.27;38.97
7333;BME280;3707;43.618;25.342;2024-02-23T13:22:25;99730.44;;;18.38;38.74
7333;BME280;3707;43.618;25.342;2024-02-23T13:24:51;99740.81;;;18.44;38.17
7333;BME280;3707;43.618;25.342;2024-02-23T13:27:18;99739.06;;;18.43;38.33
7333;BME280;3707;43.618;25.342;2024-02-23T13:29:45;99731.28;;;18.40;38.54
7333;BME280;3707;43.618;25.342;2024-02-23T13:32:12;99715.94;;;18.21;38.61
7333;BME280;3707;43.618;25.342;2024-02-23T13:34:38;99732.31;;;18.32;38.48
7333;BME280;3707;43.618;25.342;2024-02-23T13:37:07;99734.00;;;18.33;38.59
7333;BME280;3707;43.618;25.342;2024-02-23T13:39:34;99745.31;;;18.37;38.53
7333;BME280;3707;43.618;25.342;2024-02-23T13:42:00;99718.34;;;18.30;38.23
7333;BME280;3707;43.618;25.342;2024-02-23T13:44:27;99730.44;;;18.38;38.29
7333;BME280;3707;43.618;25.342;2024-02-23T13:46:54;99733.75;;;18.46;38.15
7333;BME280;3707;43.618;25.342;2024-02-23T13:49:21;99740.75;;;18.47;38.63
7333;BME280;3707;43.618;25.342;2024-02-23T13:51:48;99729.44;;;18.43;38.26
7333;BME280;3707;43.618;25.342;2024-02-23T13:54:16;99743.44;;;18.44;38.25
7333;BME280;3707;43.618;25.342;2024-02-23T13:56:43;99744.16;;;18.50;38.77
7333;BME280;3707;43.618;25.342;2024-02-23T13:59:10;99725.41;;;18.28;39.25
7333;BME280;3707;43.618;25.342;2024-02-23T14:01:37;99742.09;;;18.26;39.45
7333;BME280;3707;43.618;25.342;2024-02-23T14:04:06;99725.81;;;18.09;39.69
7333;BME280;3707;43.618;25.342;2024-02-23T14:06:33;99736.44;;;18.03;39.91
7333;BME280;3707;43.618;25.342;2024-02-23T14:09:00;99748.38;;;18.17;39.37
7333;BME280;3707;43.618;25.342;2024-02-23T14:11:30;99744.88;;;18.18;39.34
7333;BME280;3707;43.618;25.342;2024-02-23T14:13:57;99742.09;;;18.24;39.53